Flight Track Log - Related Links

Times and Time Zones

All times are in EDT time to prevent confusion due to time zone crossing. See the CTL17 flight status page for this flight to view local times or setup timezone preferences in your user account.

Time Position Orientation Groundspeed Altitude Reporting Facility
EDT Latitude Longitude Course Direction KTS MPH feet Rate Location/Type
Thu 04:45:00 PM 43.3904 -84.0180 160° South  Level Estimated
Thu 04:46:00 PM 43.3637 -83.9994 153° Southeast  Level FlightAware Approximate
Thu 04:47:00 PM 43.3371 -83.9809 153° Southeast  Level FlightAware Approximate
Thu 04:48:00 PM 43.3085 -83.9689 160° South  Level Estimated
Thu 04:49:00 PM 43.2809 -83.9532 157° South  Level FlightAware Approximate
Thu 04:50:00 PM 43.2533 -83.9375 157° South  Level FlightAware Approximate
Thu 04:51:00 PM 43.2246 -83.9258 163° South  Level Estimated
Thu 04:52:00 PM 43.1964 -83.9124 161° South  Level FlightAware Approximate
Thu 04:53:00 PM 43.1682 -83.8990 161° South  Level FlightAware Approximate
Thu 04:53:25 PM 42.9678 -83.7981 169° South 175 201 5,100  Level Cleveland Center
Thu 04:54:00 PM 43.1399 -83.8856 161° South  Level FlightAware Approximate
Thu 04:54:26 PM 42.9181 -83.7814 166° South 185 213 5,100  Level Cleveland Center
Thu 04:55:00 PM 43.1113 -83.8741 160° South  Level Estimated
Thu 04:55:33 PM 42.8625 -83.7614 165° South 184 212 5,100  Level Cleveland Center
Thu 04:56:00 PM 43.0832 -83.8599 160° South  Level FlightAware Approximate
Thu 04:56:28 PM 42.8211 -83.7481 167° South 179 206 5,000  Level Cleveland Center
Thu 04:57:00 PM 43.0552 -83.8456 160° South  Level FlightAware Approximate
Thu 04:57:35 PM 42.7672 -83.7339 169° South 172 198 5,000  Level Cleveland Center
Thu 04:58:29 PM 42.7217 -83.7289 175° South 174 200 5,100 52 Climbing Cleveland Center
Thu 04:59:30 PM 42.6717 -83.7178 171° South 177 204 5,100 -49 Level Cleveland Center
Thu 05:00:31 PM 42.6200 -83.7097 173° South 180 207 5,000  Descending Cleveland Center
Thu 05:01:32 PM 42.5744 -83.6989 170° South 178 205 5,100  Climbing Cleveland Center
Thu 05:02:33 PM 42.5225 -83.6906 173° South 181 208 5,000 -49 Descending Cleveland Center
Thu 05:03:34 PM 42.4747 -83.6800 171° South 172 198 5,000 -98 Level Cleveland Center
Thu 05:04:35 PM 42.4269 -83.6747 175° South 184 212 4,800 -344 Descending Cleveland Center
Thu 05:05:36 PM 42.3728 -83.6722 178° South 179 206 4,300 -362 Descending Cleveland Center
Thu 05:06:31 PM 42.3292 -83.6672 175° South 184 212 4,100 -295 Descending Cleveland Center
Thu 05:07:38 PM 42.2756 -83.6506 167° South 189 217 3,700 -492 Descending Cleveland Center
Thu 05:08:33 PM 42.2281 -83.6286 161° South 185 213 3,100 -1,033 Descending Cleveland Center
Thu 05:09:40 PM 42.2083 -83.5828 120° Southeast 152 175 1,600 -1,343 Descending Cleveland Center
Thu 05:11:00 PM 42.2334 -83.5409 160° South  Level Estimated
Thu 05:18:00 PM 42.2393 -83.5310 160° South  Level Estimated
Thu 05:19:00 PM 42.2393 -83.5310 160° South  Level Estimated
Thu 05:20:00 PM 42.2393 -83.5310 160° South  Level Estimated

Login

Don't have an account? Register now (free) for customized features, flight alerts, and more!